KDTN/DTN METAR and TAF weather

Enter ICAO airport designator
Station Type Date Time Source
KDTN METAR 2019/09/20 19:53 UTC NOAA

KDTN 201953Z 13017G23KT 10SM -RA FEW023 BKN065 29/23 A3003 RMK AO2 RAB53 SLP166 P0000 T02940233


Station Type Date Time Source
KDTN Decoded METAR 2019/09/20 19:53 UTC NOAA

SHREVEPORT DOWNTOWN AIRPORT, LA, United States (KDTN) 32-32N 093-45W 53M
Sep 20, 2019 - 03:53 PM EDT / 2019.09.20 1953 UTC
Wind: from the SE (130 degrees) at 20 MPH (17 KT) gusting to 26 MPH (23 KT):0
Visibility: 10 mile(s):0
Sky conditions: mostly cloudy
Weather: light rain
Precipitation last hour: A trace
Temperature: 84.9 F (29.4 C)
Dew Point: 73.9 F (23.3 C)
Relative Humidity: 69%
Pressure (altimeter): 30.03 in. Hg (1016 hPa)
ob: KDTN 201953Z 13017G23KT 10SM -RA FEW023 BKN065 29/23 A3003 RMK AO2 RAB53 SLP166 P0000 T02940233
cycle: 20

Station Type Date Time Source
KDTN TAF UTC NOAA

Error!

Example: see airport list